WMT129 EGBB-LIRF
Flight info
| Callsign | WMT129 |
|---|---|
| Flight time | 2h 10m |
| Altitude | 35000 |
| Route | ADMEX Y321 EMKUK UL612 OGULO DCT OKASI DCT OKEKO DCT MOU DCT MADIV DCT MOKIP DCT TUFTA DCT KOGAS DCT MEDAM DCT NITAM DCT MOGBO DCT ELB DCT ELKAP |
| Aircraft | A21N/M-SDE1E2E3FGIJ1J4RWXY/LB1 |
Departure
| Time | 2026-05-06 12:17 |
|---|---|
| Airport | Birmingham Airport (EGBB) |
Arrival
| Time | 2026-05-06 14:28 |
|---|---|
| Airport | Rome–Fiumicino Leonardo da Vinci International Airport (LIRF) |
| Time | Latitude | Longitude | Altitude | Speed | Heading |
|---|---|---|---|---|---|
| 2026-05-06 11:51 | 52.45244 | -1.73613 | 332 ft | 0 kts | 326° |
| 2026-05-06 12:03 | 52.45232 | -1.73601 | 332 ft | 2 kts | 326° |
| 2026-05-06 12:03 | 52.45220 | -1.73587 | 332 ft | 2 kts | 325° |
| 2026-05-06 12:03 | 52.45208 | -1.73573 | 333 ft | 1 kts | 326° |
| 2026-05-06 12:04 | 52.45200 | -1.73564 | 333 ft | 2 kts | 315° |
| 2026-05-06 12:04 | 52.45192 | -1.73544 | 333 ft | 2 kts | 287° |
| 2026-05-06 12:04 | 52.45190 | -1.73519 | 333 ft | 2 kts | 261° |
| 2026-05-06 12:04 | 52.45194 | -1.73498 | 334 ft | 0 kts | 239° |
| 2026-05-06 12:05 | 52.45198 | -1.73490 | 334 ft | 1 kts | 235° |
| 2026-05-06 12:05 | 52.45198 | -1.73488 | 334 ft | 0 kts | 235° |
| 2026-05-06 12:06 | 52.45192 | -1.73503 | 334 ft | 2 kts | 233° |
| 2026-05-06 12:07 | 52.45170 | -1.73557 | 333 ft | 9 kts | 237° |
| 2026-05-06 12:07 | 52.45123 | -1.73675 | 331 ft | 13 kts | 234° |
| 2026-05-06 12:07 | 52.45044 | -1.73745 | 331 ft | 13 kts | 170° |
| 2026-05-06 12:07 | 52.44979 | -1.73684 | 333 ft | 6 kts | 145° |
| 2026-05-06 12:08 | 52.44968 | -1.73672 | 333 ft | 1 kts | 145° |
| 2026-05-06 12:08 | 52.44949 | -1.73651 | 334 ft | 5 kts | 149° |
| 2026-05-06 12:08 | 52.44896 | -1.73652 | 334 ft | 11 kts | 198° |
| 2026-05-06 12:08 | 52.44808 | -1.73698 | 334 ft | 14 kts | 198° |
| 2026-05-06 12:09 | 52.44718 | -1.73724 | 335 ft | 12 kts | 166° |
| 2026-05-06 12:09 | 52.44652 | -1.73665 | 337 ft | 8 kts | 144° |
| 2026-05-06 12:09 | 52.44604 | -1.73608 | 338 ft | 9 kts | 144° |
| 2026-05-06 12:09 | 52.44540 | -1.73533 | 339 ft | 12 kts | 145° |
| 2026-05-06 12:10 | 52.44485 | -1.73472 | 340 ft | 4 kts | 147° |
| 2026-05-06 12:10 | 52.44447 | -1.73430 | 341 ft | 8 kts | 146° |
| 2026-05-06 12:10 | 52.44390 | -1.73412 | 341 ft | 6 kts | 205° |
| 2026-05-06 12:10 | 52.44369 | -1.73446 | 341 ft | 0 kts | 234° |
| 2026-05-06 12:14 | 52.44367 | -1.73450 | 341 ft | 2 kts | 234° |
| 2026-05-06 12:14 | 52.44347 | -1.73494 | 341 ft | 7 kts | 234° |
| 2026-05-06 12:14 | 52.44317 | -1.73582 | 341 ft | 9 kts | 259° |
| 2026-05-06 12:15 | 52.44355 | -1.73663 | 340 ft | 10 kts | 328° |
| 2026-05-06 12:15 | 52.44383 | -1.73692 | 340 ft | 0 kts | 327° |
| 2026-05-06 12:15 | 52.44384 | -1.73692 | 340 ft | 0 kts | 327° |
| 2026-05-06 12:16 | 52.44386 | -1.73695 | 339 ft | 2 kts | 327° |
| 2026-05-06 12:16 | 52.44517 | -1.73838 | 338 ft | 56 kts | 325° |
| 2026-05-06 12:16 | 52.45038 | -1.74419 | 331 ft | 121 kts | 326° |
| 2026-05-06 12:17 | 52.45887 | -1.75361 | 341 ft | 170 kts | 326° |
| 2026-05-06 12:17 | 52.46792 | -1.76382 | 1173 ft | 150 kts | 328° |
| 2026-05-06 12:17 | 52.47600 | -1.77307 | 1846 ft | 143 kts | 329° |
| 2026-05-06 12:17 | 52.48452 | -1.78275 | 2211 ft | 152 kts | 330° |
| 2026-05-06 12:18 | 52.49359 | -1.79229 | 2485 ft | 161 kts | 338° |
| 2026-05-06 12:18 | 52.50470 | -1.79367 | 2718 ft | 168 kts | 22° |
| 2026-05-06 12:18 | 52.51373 | -1.78103 | 2996 ft | 180 kts | 57° |
| 2026-05-06 12:18 | 52.52019 | -1.76249 | 3303 ft | 193 kts | 57° |
| 2026-05-06 12:19 | 52.52763 | -1.74296 | 3571 ft | 210 kts | 56° |
| 2026-05-06 12:19 | 52.53494 | -1.72115 | 3890 ft | 227 kts | 71° |
| 2026-05-06 12:19 | 52.53556 | -1.69459 | 4299 ft | 243 kts | 99° |
| 2026-05-06 12:19 | 52.52916 | -1.66853 | 4929 ft | 251 kts | 122° |
| 2026-05-06 12:20 | 52.51718 | -1.64701 | 5429 ft | 264 kts | 135° |
| 2026-05-06 12:20 | 52.50309 | -1.62624 | 5942 ft | 274 kts | 136° |
| 2026-05-06 12:20 | 52.48895 | -1.60508 | 6633 ft | 276 kts | 135° |
| 2026-05-06 12:20 | 52.47494 | -1.58329 | 7317 ft | 279 kts | 134° |
| 2026-05-06 12:21 | 52.46040 | -1.56249 | 7956 ft | 283 kts | 141° |
| 2026-05-06 12:21 | 52.44402 | -1.54419 | 8576 ft | 288 kts | 147° |
| 2026-05-06 12:21 | 52.42664 | -1.52694 | 9196 ft | 292 kts | 148° |
| 2026-05-06 12:21 | 52.40939 | -1.51013 | 9792 ft | 295 kts | 149° |
| 2026-05-06 12:22 | 52.39151 | -1.49267 | 10355 ft | 300 kts | 149° |
| 2026-05-06 12:22 | 52.37288 | -1.47495 | 10658 ft | 314 kts | 153° |
| 2026-05-06 12:22 | 52.35226 | -1.46126 | 10959 ft | 327 kts | 163° |
| 2026-05-06 12:22 | 52.33009 | -1.45313 | 11464 ft | 332 kts | 170° |
| 2026-05-06 12:23 | 52.30728 | -1.44668 | 12040 ft | 335 kts | 171° |
| 2026-05-06 12:23 | 52.28410 | -1.44038 | 12603 ft | 338 kts | 171° |
| 2026-05-06 12:23 | 52.26071 | -1.43398 | 13161 ft | 341 kts | 171° |
| 2026-05-06 12:23 | 52.23729 | -1.42748 | 13710 ft | 344 kts | 171° |
| 2026-05-06 12:24 | 52.21352 | -1.42083 | 14251 ft | 346 kts | 171° |
| 2026-05-06 12:24 | 52.18975 | -1.41414 | 14786 ft | 349 kts | 171° |
| 2026-05-06 12:24 | 52.16567 | -1.40735 | 15327 ft | 351 kts | 171° |
| 2026-05-06 12:24 | 52.14148 | -1.40052 | 15845 ft | 353 kts | 171° |
| 2026-05-06 12:25 | 52.11727 | -1.39369 | 16355 ft | 355 kts | 171° |
| 2026-05-06 12:25 | 52.09275 | -1.38678 | 16854 ft | 357 kts | 171° |
| 2026-05-06 12:25 | 52.06824 | -1.37987 | 17327 ft | 360 kts | 171° |
| 2026-05-06 12:25 | 52.04350 | -1.37292 | 17793 ft | 362 kts | 171° |
| 2026-05-06 12:26 | 52.01848 | -1.36588 | 18254 ft | 365 kts | 171° |
| 2026-05-06 12:26 | 51.99342 | -1.35815 | 18701 ft | 367 kts | 167° |
| 2026-05-06 12:26 | 51.96904 | -1.34621 | 19143 ft | 370 kts | 161° |
| 2026-05-06 12:26 | 51.94520 | -1.32937 | 19582 ft | 373 kts | 156° |
| 2026-05-06 12:27 | 51.92198 | -1.31077 | 20005 ft | 375 kts | 155° |
| 2026-05-06 12:27 | 51.89869 | -1.29177 | 20419 ft | 377 kts | 155° |
| 2026-05-06 12:27 | 51.87513 | -1.27258 | 20832 ft | 379 kts | 155° |
| 2026-05-06 12:27 | 51.85138 | -1.25335 | 21239 ft | 381 kts | 155° |
| 2026-05-06 12:28 | 51.83036 | -1.23641 | 21591 ft | 382 kts | 155° |
| 2026-05-06 12:28 | 51.80626 | -1.21702 | 21970 ft | 385 kts | 155° |
| 2026-05-06 12:28 | 51.78204 | -1.19761 | 22336 ft | 387 kts | 155° |
| 2026-05-06 12:28 | 51.75789 | -1.17826 | 22700 ft | 389 kts | 155° |
| 2026-05-06 12:29 | 51.73545 | -1.16031 | 23028 ft | 391 kts | 155° |
| 2026-05-06 12:29 | 51.71102 | -1.14079 | 23380 ft | 393 kts | 155° |
| 2026-05-06 12:29 | 51.68624 | -1.12103 | 23733 ft | 394 kts | 156° |
| 2026-05-06 12:29 | 51.66182 | -1.10159 | 24077 ft | 396 kts | 156° |
| 2026-05-06 12:30 | 51.63668 | -1.08138 | 24418 ft | 398 kts | 154° |
| 2026-05-06 12:30 | 51.61243 | -1.05941 | 24737 ft | 401 kts | 150° |
| 2026-05-06 12:30 | 51.58881 | -1.03460 | 25054 ft | 404 kts | 146° |
| 2026-05-06 12:30 | 51.56580 | -1.00829 | 25371 ft | 406 kts | 146° |
| 2026-05-06 12:31 | 51.54305 | -0.98211 | 25675 ft | 407 kts | 146° |
| 2026-05-06 12:31 | 51.51990 | -0.95555 | 25972 ft | 409 kts | 146° |
| 2026-05-06 12:31 | 51.49665 | -0.92902 | 26270 ft | 411 kts | 146° |
| 2026-05-06 12:31 | 51.47301 | -0.90268 | 26559 ft | 412 kts | 148° |
| 2026-05-06 12:32 | 51.44788 | -0.87898 | 26846 ft | 413 kts | 153° |
| 2026-05-06 12:32 | 51.42188 | -0.85918 | 27121 ft | 414 kts | 159° |
| 2026-05-06 12:32 | 51.39508 | -0.84180 | 27393 ft | 415 kts | 160° |
| 2026-05-06 12:32 | 51.36830 | -0.82478 | 27662 ft | 417 kts | 160° |
| 2026-05-06 12:33 | 51.34123 | -0.80759 | 27928 ft | 418 kts | 160° |
| 2026-05-06 12:33 | 51.31426 | -0.79046 | 28180 ft | 420 kts | 159° |
| 2026-05-06 12:33 | 51.28676 | -0.77296 | 28431 ft | 422 kts | 159° |
| 2026-05-06 12:33 | 51.25947 | -0.75559 | 28678 ft | 424 kts | 159° |
| 2026-05-06 12:34 | 51.23177 | -0.73797 | 28932 ft | 425 kts | 159° |
| 2026-05-06 12:34 | 51.20422 | -0.72044 | 29183 ft | 427 kts | 159° |
| 2026-05-06 12:34 | 51.17637 | -0.70272 | 29430 ft | 428 kts | 159° |
| 2026-05-06 12:34 | 51.14869 | -0.68515 | 29671 ft | 429 kts | 159° |
| 2026-05-06 12:35 | 51.12050 | -0.66730 | 29914 ft | 431 kts | 159° |
| 2026-05-06 12:35 | 51.09263 | -0.64941 | 30147 ft | 432 kts | 158° |
| 2026-05-06 12:35 | 51.06525 | -0.62947 | 30379 ft | 434 kts | 154° |
| 2026-05-06 12:35 | 51.03849 | -0.60685 | 30599 ft | 436 kts | 150° |
| 2026-05-06 12:36 | 51.01255 | -0.58159 | 30828 ft | 437 kts | 147° |
| 2026-05-06 12:36 | 50.98722 | -0.55456 | 31044 ft | 439 kts | 146° |
| 2026-05-06 12:36 | 50.96214 | -0.52771 | 31236 ft | 440 kts | 146° |
| 2026-05-06 12:36 | 50.93641 | -0.50020 | 31430 ft | 441 kts | 146° |
| 2026-05-06 12:37 | 50.91085 | -0.47296 | 31618 ft | 443 kts | 146° |
| 2026-05-06 12:37 | 50.88522 | -0.44570 | 31797 ft | 444 kts | 146° |
| 2026-05-06 12:37 | 50.85948 | -0.41837 | 31979 ft | 446 kts | 146° |
| 2026-05-06 12:37 | 50.83362 | -0.39095 | 32219 ft | 445 kts | 146° |
| 2026-05-06 12:38 | 50.80771 | -0.36349 | 32479 ft | 445 kts | 146° |
| 2026-05-06 12:38 | 50.78207 | -0.33635 | 32727 ft | 444 kts | 147° |
| 2026-05-06 12:38 | 50.75637 | -0.30918 | 32957 ft | 444 kts | 147° |
| 2026-05-06 12:38 | 50.73071 | -0.28212 | 33182 ft | 444 kts | 147° |
| 2026-05-06 12:39 | 50.70515 | -0.25523 | 33370 ft | 444 kts | 147° |
| 2026-05-06 12:39 | 50.68095 | -0.22984 | 33529 ft | 445 kts | 147° |
| 2026-05-06 12:39 | 50.65588 | -0.20359 | 33697 ft | 446 kts | 147° |
| 2026-05-06 12:39 | 50.62994 | -0.17644 | 33877 ft | 447 kts | 147° |
| 2026-05-06 12:40 | 50.60415 | -0.14946 | 34034 ft | 447 kts | 147° |
| 2026-05-06 12:40 | 50.57845 | -0.12260 | 34183 ft | 448 kts | 147° |
| 2026-05-06 12:40 | 50.55241 | -0.09540 | 34349 ft | 449 kts | 147° |
| 2026-05-06 12:40 | 50.52627 | -0.06810 | 34516 ft | 450 kts | 147° |
| 2026-05-06 12:41 | 50.50018 | -0.04091 | 34686 ft | 450 kts | 147° |
| 2026-05-06 12:41 | 50.47395 | -0.01362 | 34837 ft | 451 kts | 147° |
| 2026-05-06 12:41 | 50.44787 | 0.01346 | 34955 ft | 452 kts | 147° |
| 2026-05-06 12:41 | 50.42164 | 0.04066 | 34958 ft | 456 kts | 147° |
| 2026-05-06 12:42 | 50.36821 | 0.09590 | 34965 ft | 463 kts | 147° |
| 2026-05-06 12:42 | 50.31415 | 0.15161 | 34966 ft | 467 kts | 146° |
| 2026-05-06 12:43 | 50.26004 | 0.20734 | 34969 ft | 468 kts | 146° |
| 2026-05-06 12:43 | 50.20569 | 0.26313 | 34970 ft | 468 kts | 146° |
| 2026-05-06 12:44 | 50.15123 | 0.31902 | 34966 ft | 468 kts | 146° |
| 2026-05-06 12:44 | 50.09674 | 0.37492 | 34971 ft | 468 kts | 146° |
| 2026-05-06 12:45 | 50.04258 | 0.43036 | 34965 ft | 468 kts | 146° |
| 2026-05-06 12:46 | 49.96067 | 0.51400 | 34957 ft | 468 kts | 146° |
| 2026-05-06 12:46 | 49.90638 | 0.56925 | 34956 ft | 467 kts | 146° |
| 2026-05-06 12:47 | 49.85254 | 0.62578 | 34951 ft | 467 kts | 142° |
| 2026-05-06 12:47 | 49.80187 | 0.68838 | 34952 ft | 468 kts | 141° |
| 2026-05-06 12:48 | 49.75483 | 0.74756 | 34946 ft | 468 kts | 140° |
| 2026-05-06 12:48 | 49.70505 | 0.81004 | 34952 ft | 468 kts | 140° |
| 2026-05-06 12:49 | 49.65561 | 0.87195 | 34929 ft | 468 kts | 140° |
| 2026-05-06 12:49 | 49.60697 | 0.93264 | 34938 ft | 468 kts | 140° |
| 2026-05-06 12:50 | 49.55755 | 0.99415 | 34930 ft | 467 kts | 140° |
| 2026-05-06 12:50 | 49.50697 | 1.05696 | 34916 ft | 467 kts | 140° |
| 2026-05-06 12:51 | 49.46033 | 1.11478 | 34950 ft | 467 kts | 140° |
| 2026-05-06 12:51 | 49.40975 | 1.17727 | 34926 ft | 467 kts | 140° |
| 2026-05-06 12:52 | 49.36059 | 1.23766 | 34916 ft | 467 kts | 140° |
| 2026-05-06 12:52 | 49.30940 | 1.30038 | 34922 ft | 467 kts | 140° |
| 2026-05-06 12:53 | 49.25887 | 1.36223 | 34909 ft | 466 kts | 140° |
| 2026-05-06 12:53 | 49.20790 | 1.42449 | 34892 ft | 466 kts | 140° |
| 2026-05-06 12:54 | 49.15702 | 1.48647 | 34888 ft | 465 kts | 140° |
| 2026-05-06 12:54 | 49.10633 | 1.54804 | 34908 ft | 465 kts | 140° |
| 2026-05-06 12:55 | 49.05557 | 1.60953 | 34897 ft | 465 kts | 140° |
| 2026-05-06 12:55 | 49.00503 | 1.67064 | 34894 ft | 465 kts | 141° |
| 2026-05-06 12:56 | 48.95411 | 1.73202 | 34888 ft | 464 kts | 141° |
| 2026-05-06 12:56 | 48.90402 | 1.79222 | 34887 ft | 464 kts | 141° |
| 2026-05-06 12:57 | 48.85516 | 1.85082 | 34893 ft | 464 kts | 141° |
| 2026-05-06 12:57 | 48.80551 | 1.91020 | 34904 ft | 464 kts | 141° |
| 2026-05-06 12:58 | 48.75706 | 1.96801 | 34874 ft | 465 kts | 141° |
| 2026-05-06 12:58 | 48.70634 | 2.02843 | 34897 ft | 464 kts | 141° |
| 2026-05-06 12:59 | 48.65703 | 2.08702 | 34891 ft | 464 kts | 141° |
| 2026-05-06 12:59 | 48.60648 | 2.14685 | 34881 ft | 463 kts | 141° |
| 2026-05-06 13:00 | 48.55704 | 2.20968 | 34890 ft | 463 kts | 136° |
| 2026-05-06 13:00 | 48.51132 | 2.27826 | 34890 ft | 463 kts | 134° |
| 2026-05-06 13:01 | 48.46547 | 2.34789 | 34881 ft | 463 kts | 134° |
| 2026-05-06 13:01 | 48.41977 | 2.41709 | 34875 ft | 463 kts | 134° |
| 2026-05-06 13:02 | 48.37437 | 2.48562 | 34880 ft | 463 kts | 134° |
| 2026-05-06 13:02 | 48.32789 | 2.55301 | 34883 ft | 463 kts | 138° |
| 2026-05-06 13:03 | 48.27755 | 2.61238 | 34876 ft | 463 kts | 144° |
| 2026-05-06 13:03 | 48.22242 | 2.66314 | 34872 ft | 464 kts | 150° |
| 2026-05-06 13:04 | 48.16584 | 2.71086 | 34872 ft | 463 kts | 151° |
| 2026-05-06 13:04 | 48.11189 | 2.75463 | 34864 ft | 464 kts | 152° |
| 2026-05-06 13:05 | 48.05515 | 2.79545 | 34877 ft | 465 kts | 157° |
| 2026-05-06 13:05 | 47.99532 | 2.83335 | 34877 ft | 465 kts | 157° |
| 2026-05-06 13:06 | 47.93572 | 2.87122 | 34878 ft | 465 kts | 157° |
| 2026-05-06 13:06 | 47.87613 | 2.90900 | 34878 ft | 464 kts | 157° |
| 2026-05-06 13:07 | 47.81668 | 2.94658 | 34882 ft | 464 kts | 157° |
| 2026-05-06 13:07 | 47.75701 | 2.98426 | 34880 ft | 464 kts | 157° |
| 2026-05-06 13:08 | 47.69836 | 3.02119 | 34878 ft | 464 kts | 157° |
| 2026-05-06 13:08 | 47.63885 | 3.05858 | 34869 ft | 463 kts | 157° |
| 2026-05-06 13:09 | 47.57961 | 3.09572 | 34882 ft | 462 kts | 157° |
| 2026-05-06 13:09 | 47.52057 | 3.13257 | 34880 ft | 461 kts | 158° |
| 2026-05-06 13:10 | 47.46143 | 3.16927 | 34873 ft | 460 kts | 158° |
| 2026-05-06 13:10 | 47.40197 | 3.20612 | 34875 ft | 460 kts | 158° |
| 2026-05-06 13:11 | 47.34296 | 3.24265 | 34880 ft | 461 kts | 158° |
| 2026-05-06 13:11 | 47.28354 | 3.27936 | 34883 ft | 462 kts | 158° |
| 2026-05-06 13:12 | 47.22414 | 3.31597 | 34878 ft | 462 kts | 158° |
| 2026-05-06 13:12 | 47.16469 | 3.35256 | 34879 ft | 461 kts | 158° |
| 2026-05-06 13:13 | 47.10482 | 3.38930 | 34890 ft | 462 kts | 158° |
| 2026-05-06 13:13 | 47.04524 | 3.42577 | 34881 ft | 462 kts | 158° |
| 2026-05-06 13:14 | 46.98579 | 3.46210 | 34876 ft | 462 kts | 158° |
| 2026-05-06 13:14 | 46.92588 | 3.49862 | 34880 ft | 462 kts | 158° |
| 2026-05-06 13:15 | 46.86620 | 3.53495 | 34874 ft | 462 kts | 158° |
| 2026-05-06 13:15 | 46.80697 | 3.57110 | 34879 ft | 462 kts | 156° |
| 2026-05-06 13:16 | 46.75400 | 3.61985 | 34882 ft | 465 kts | 141° |
| 2026-05-06 13:16 | 46.71202 | 3.68717 | 34884 ft | 468 kts | 126° |
| 2026-05-06 13:17 | 46.68218 | 3.77477 | 34883 ft | 473 kts | 110° |
| 2026-05-06 13:17 | 46.66611 | 3.86628 | 34884 ft | 474 kts | 105° |
| 2026-05-06 13:18 | 46.65083 | 3.95933 | 34875 ft | 475 kts | 106° |
| 2026-05-06 13:18 | 46.63490 | 4.05138 | 34881 ft | 474 kts | 106° |
| 2026-05-06 13:19 | 46.61862 | 4.14448 | 34881 ft | 474 kts | 106° |
| 2026-05-06 13:19 | 46.60230 | 4.23764 | 34885 ft | 474 kts | 106° |
| 2026-05-06 13:20 | 46.58590 | 4.33091 | 34888 ft | 475 kts | 106° |
| 2026-05-06 13:20 | 46.56945 | 4.42400 | 34890 ft | 475 kts | 107° |
| 2026-05-06 13:21 | 46.55281 | 4.51769 | 34893 ft | 475 kts | 107° |
| 2026-05-06 13:21 | 46.53623 | 4.61061 | 34893 ft | 475 kts | 107° |
| 2026-05-06 13:22 | 46.51958 | 4.70362 | 34889 ft | 475 kts | 108° |
| 2026-05-06 13:22 | 46.50282 | 4.79667 | 34891 ft | 475 kts | 107° |
| 2026-05-06 13:23 | 46.48811 | 4.87793 | 34895 ft | 475 kts | 108° |
| 2026-05-06 13:23 | 46.47183 | 4.96740 | 34895 ft | 475 kts | 108° |
| 2026-05-06 13:24 | 46.45497 | 5.05956 | 34897 ft | 475 kts | 108° |
| 2026-05-06 13:24 | 46.43783 | 5.15272 | 34897 ft | 476 kts | 108° |
| 2026-05-06 13:25 | 46.42085 | 5.24473 | 34899 ft | 476 kts | 108° |
| 2026-05-06 13:25 | 46.40155 | 5.33632 | 34896 ft | 474 kts | 114° |
| 2026-05-06 13:26 | 46.37407 | 5.42261 | 34895 ft | 470 kts | 122° |
| 2026-05-06 13:26 | 46.33882 | 5.50160 | 34886 ft | 466 kts | 130° |
| 2026-05-06 13:27 | 46.29762 | 5.57353 | 34886 ft | 464 kts | 134° |
| 2026-05-06 13:27 | 46.25552 | 5.64455 | 34885 ft | 464 kts | 134° |
| 2026-05-06 13:28 | 46.21353 | 5.71533 | 34880 ft | 463 kts | 135° |
| 2026-05-06 13:28 | 46.17341 | 5.78287 | 34879 ft | 464 kts | 135° |
| 2026-05-06 13:29 | 46.13076 | 5.85451 | 34775 ft | 464 kts | 135° |
| 2026-05-06 13:29 | 46.10990 | 5.88947 | 34989 ft | 465 kts | 135° |
| 2026-05-06 13:29 | 46.08865 | 5.92505 | 34792 ft | 465 kts | 135° |
| 2026-05-06 13:30 | 46.04638 | 5.99575 | 34912 ft | 465 kts | 135° |
| 2026-05-06 13:30 | 46.00396 | 6.06649 | 34928 ft | 465 kts | 135° |
| 2026-05-06 13:31 | 45.96155 | 6.13704 | 34934 ft | 466 kts | 135° |
| 2026-05-06 13:31 | 45.91890 | 6.20786 | 34931 ft | 465 kts | 135° |
| 2026-05-06 13:32 | 45.87651 | 6.27801 | 34933 ft | 465 kts | 135° |
| 2026-05-06 13:32 | 45.83337 | 6.34742 | 34945 ft | 463 kts | 139° |
| 2026-05-06 13:33 | 45.78688 | 6.40917 | 34934 ft | 458 kts | 145° |
| 2026-05-06 13:33 | 45.73593 | 6.46397 | 34922 ft | 454 kts | 149° |
| 2026-05-06 13:34 | 45.68419 | 6.51663 | 34923 ft | 454 kts | 149° |
| 2026-05-06 13:34 | 45.63224 | 6.56943 | 34922 ft | 453 kts | 149° |
| 2026-05-06 13:35 | 45.58081 | 6.62156 | 34926 ft | 454 kts | 150° |
| 2026-05-06 13:35 | 45.52924 | 6.67368 | 34906 ft | 453 kts | 150° |
| 2026-05-06 13:36 | 45.47915 | 6.72420 | 34891 ft | 453 kts | 150° |
| 2026-05-06 13:36 | 45.42780 | 6.77591 | 34874 ft | 452 kts | 150° |
| 2026-05-06 13:37 | 45.37794 | 6.82613 | 34876 ft | 452 kts | 151° |
| 2026-05-06 13:37 | 45.32638 | 6.87781 | 34866 ft | 450 kts | 151° |
| 2026-05-06 13:38 | 45.27537 | 6.93053 | 34850 ft | 452 kts | 148° |
| 2026-05-06 13:38 | 45.22771 | 6.99006 | 34853 ft | 456 kts | 142° |
| 2026-05-06 13:39 | 45.18198 | 7.05331 | 34843 ft | 456 kts | 142° |
| 2026-05-06 13:39 | 45.13632 | 7.11650 | 34868 ft | 459 kts | 141° |
| 2026-05-06 13:40 | 45.09342 | 7.18508 | 34881 ft | 464 kts | 135° |
| 2026-05-06 13:40 | 45.05553 | 7.25891 | 34893 ft | 469 kts | 131° |
| 2026-05-06 13:41 | 45.01832 | 7.33419 | 34898 ft | 468 kts | 131° |
| 2026-05-06 13:41 | 44.97902 | 7.40722 | 34884 ft | 463 kts | 137° |
| 2026-05-06 13:42 | 44.93488 | 7.47323 | 34860 ft | 459 kts | 142° |
| 2026-05-06 13:42 | 44.88948 | 7.53650 | 34841 ft | 459 kts | 142° |
| 2026-05-06 13:43 | 44.84416 | 7.59962 | 34842 ft | 459 kts | 142° |
| 2026-05-06 13:43 | 44.79890 | 7.66264 | 34850 ft | 456 kts | 143° |
| 2026-05-06 13:44 | 44.75487 | 7.72379 | 34856 ft | 456 kts | 143° |
| 2026-05-06 13:44 | 44.70949 | 7.78664 | 34843 ft | 457 kts | 143° |
| 2026-05-06 13:45 | 44.66450 | 7.84879 | 34839 ft | 456 kts | 143° |
| 2026-05-06 13:45 | 44.59627 | 7.94277 | 34832 ft | 456 kts | 143° |
| 2026-05-06 13:46 | 44.55065 | 8.00550 | 34840 ft | 456 kts | 143° |
| 2026-05-06 13:46 | 44.50523 | 8.06777 | 34849 ft | 457 kts | 144° |
| 2026-05-06 13:47 | 44.45958 | 8.13020 | 34849 ft | 457 kts | 144° |
| 2026-05-06 13:47 | 44.41362 | 8.19296 | 34854 ft | 456 kts | 144° |
| 2026-05-06 13:48 | 44.36786 | 8.25524 | 34847 ft | 456 kts | 144° |
| 2026-05-06 13:48 | 44.32251 | 8.31685 | 34843 ft | 455 kts | 144° |
| 2026-05-06 13:49 | 44.27685 | 8.37873 | 34848 ft | 455 kts | 144° |
| 2026-05-06 13:49 | 44.23140 | 8.44016 | 34859 ft | 455 kts | 144° |
| 2026-05-06 13:50 | 44.18558 | 8.50197 | 34848 ft | 456 kts | 144° |
| 2026-05-06 13:50 | 44.14009 | 8.56318 | 34840 ft | 456 kts | 144° |
| 2026-05-06 13:51 | 44.09414 | 8.62490 | 34843 ft | 456 kts | 144° |
| 2026-05-06 13:51 | 44.04852 | 8.68598 | 34844 ft | 456 kts | 144° |
| 2026-05-06 13:52 | 44.00243 | 8.74763 | 34857 ft | 457 kts | 144° |
| 2026-05-06 13:52 | 43.95719 | 8.80798 | 34854 ft | 458 kts | 144° |
| 2026-05-06 13:53 | 43.91111 | 8.86937 | 34857 ft | 458 kts | 144° |
| 2026-05-06 13:53 | 43.86572 | 8.92966 | 34862 ft | 458 kts | 144° |
| 2026-05-06 13:54 | 43.81980 | 8.99052 | 34861 ft | 457 kts | 144° |
| 2026-05-06 13:54 | 43.77374 | 9.05143 | 34871 ft | 457 kts | 144° |
| 2026-05-06 13:55 | 43.72771 | 9.11215 | 34880 ft | 458 kts | 144° |
| 2026-05-06 13:55 | 43.68156 | 9.17286 | 34878 ft | 458 kts | 144° |
| 2026-05-06 13:56 | 43.63517 | 9.23376 | 34885 ft | 459 kts | 144° |
| 2026-05-06 13:56 | 43.58898 | 9.29431 | 34888 ft | 458 kts | 144° |
| 2026-05-06 13:57 | 43.54276 | 9.35470 | 34890 ft | 460 kts | 144° |
| 2026-05-06 13:57 | 43.49604 | 9.41564 | 34890 ft | 460 kts | 144° |
| 2026-05-06 13:58 | 43.44946 | 9.47626 | 34894 ft | 461 kts | 144° |
| 2026-05-06 13:58 | 43.40282 | 9.53680 | 34894 ft | 461 kts | 143° |
| 2026-05-06 13:59 | 43.35593 | 9.59755 | 34896 ft | 462 kts | 143° |
| 2026-05-06 13:59 | 43.30933 | 9.65783 | 34897 ft | 462 kts | 144° |
| 2026-05-06 14:00 | 43.26210 | 9.71877 | 34901 ft | 461 kts | 144° |
| 2026-05-06 14:00 | 43.21632 | 9.77772 | 34905 ft | 462 kts | 144° |
| 2026-05-06 14:01 | 43.16894 | 9.83854 | 34909 ft | 462 kts | 144° |
| 2026-05-06 14:01 | 43.12210 | 9.89855 | 34910 ft | 462 kts | 144° |
| 2026-05-06 14:02 | 43.07511 | 9.95864 | 34912 ft | 464 kts | 144° |
| 2026-05-06 14:02 | 43.02781 | 10.01911 | 34910 ft | 463 kts | 144° |
| 2026-05-06 14:03 | 42.98088 | 10.07896 | 34769 ft | 456 kts | 144° |
| 2026-05-06 14:03 | 42.95788 | 10.10821 | 33961 ft | 459 kts | 144° |
| 2026-05-06 14:03 | 42.93448 | 10.13785 | 33137 ft | 459 kts | 144° |
| 2026-05-06 14:04 | 42.91106 | 10.16752 | 32419 ft | 458 kts | 144° |
| 2026-05-06 14:04 | 42.88793 | 10.19682 | 31646 ft | 458 kts | 144° |
| 2026-05-06 14:04 | 42.86443 | 10.22662 | 31159 ft | 452 kts | 144° |
| 2026-05-06 14:04 | 42.84174 | 10.25537 | 30697 ft | 446 kts | 144° |
| 2026-05-06 14:05 | 42.81908 | 10.28406 | 30207 ft | 441 kts | 144° |
| 2026-05-06 14:05 | 42.79683 | 10.31217 | 29718 ft | 437 kts | 144° |
| 2026-05-06 14:05 | 42.77463 | 10.34014 | 29260 ft | 432 kts | 144° |
| 2026-05-06 14:05 | 42.75306 | 10.36844 | 28792 ft | 433 kts | 138° |
| 2026-05-06 14:06 | 42.73660 | 10.40290 | 28332 ft | 444 kts | 121° |
| 2026-05-06 14:06 | 42.72784 | 10.44355 | 27897 ft | 452 kts | 103° |
| 2026-05-06 14:06 | 42.72562 | 10.48587 | 27504 ft | 453 kts | 97° |
| 2026-05-06 14:06 | 42.72460 | 10.52875 | 27097 ft | 451 kts | 96° |
| 2026-05-06 14:07 | 42.72353 | 10.57063 | 26658 ft | 447 kts | 97° |
| 2026-05-06 14:07 | 42.72167 | 10.61275 | 26231 ft | 440 kts | 102° |
| 2026-05-06 14:07 | 42.71459 | 10.65223 | 25926 ft | 421 kts | 116° |
| 2026-05-06 14:07 | 42.70221 | 10.68746 | 25558 ft | 405 kts | 128° |
| 2026-05-06 14:08 | 42.68733 | 10.72014 | 25229 ft | 396 kts | 129° |
| 2026-05-06 14:08 | 42.67315 | 10.75023 | 24932 ft | 389 kts | 130° |
| 2026-05-06 14:08 | 42.65862 | 10.78111 | 24552 ft | 384 kts | 130° |
| 2026-05-06 14:08 | 42.64444 | 10.81150 | 24187 ft | 379 kts | 129° |
| 2026-05-06 14:09 | 42.63041 | 10.84175 | 23730 ft | 377 kts | 129° |
| 2026-05-06 14:09 | 42.61639 | 10.87200 | 23204 ft | 376 kts | 129° |
| 2026-05-06 14:09 | 42.60276 | 10.90156 | 22881 ft | 370 kts | 129° |
| 2026-05-06 14:09 | 42.58921 | 10.93091 | 22414 ft | 369 kts | 128° |
| 2026-05-06 14:10 | 42.57555 | 10.96048 | 21912 ft | 369 kts | 128° |
| 2026-05-06 14:10 | 42.56208 | 10.98968 | 21525 ft | 365 kts | 128° |
| 2026-05-06 14:10 | 42.54860 | 11.01891 | 21106 ft | 362 kts | 128° |
| 2026-05-06 14:10 | 42.53530 | 11.04768 | 20622 ft | 362 kts | 128° |
| 2026-05-06 14:11 | 42.52193 | 11.07657 | 20226 ft | 358 kts | 127° |
| 2026-05-06 14:11 | 42.50901 | 11.10458 | 19874 ft | 354 kts | 127° |
| 2026-05-06 14:11 | 42.49589 | 11.13290 | 19423 ft | 352 kts | 127° |
| 2026-05-06 14:11 | 42.48286 | 11.16097 | 19002 ft | 350 kts | 127° |
| 2026-05-06 14:12 | 42.47007 | 11.18847 | 18613 ft | 347 kts | 127° |
| 2026-05-06 14:12 | 42.45723 | 11.21613 | 18221 ft | 344 kts | 127° |
| 2026-05-06 14:12 | 42.44577 | 11.24457 | 17794 ft | 346 kts | 117° |
| 2026-05-06 14:12 | 42.43807 | 11.27544 | 17378 ft | 348 kts | 107° |
| 2026-05-06 14:13 | 42.43375 | 11.30757 | 16989 ft | 347 kts | 102° |
| 2026-05-06 14:13 | 42.43027 | 11.34022 | 16588 ft | 345 kts | 101° |
| 2026-05-06 14:13 | 42.42695 | 11.37219 | 16197 ft | 343 kts | 101° |
| 2026-05-06 14:13 | 42.42357 | 11.40396 | 15801 ft | 341 kts | 101° |
| 2026-05-06 14:14 | 42.42010 | 11.43554 | 15398 ft | 339 kts | 101° |
| 2026-05-06 14:14 | 42.41662 | 11.46682 | 15033 ft | 335 kts | 101° |
| 2026-05-06 14:14 | 42.41319 | 11.49737 | 14941 ft | 322 kts | 101° |
| 2026-05-06 14:14 | 42.40991 | 11.52656 | 14942 ft | 307 kts | 102° |
| 2026-05-06 14:15 | 42.40671 | 11.55472 | 14943 ft | 302 kts | 102° |
| 2026-05-06 14:15 | 42.40348 | 11.58295 | 14947 ft | 302 kts | 102° |
| 2026-05-06 14:15 | 42.39994 | 11.61134 | 14555 ft | 306 kts | 102° |
| 2026-05-06 14:15 | 42.39620 | 11.63963 | 14089 ft | 308 kts | 103° |
| 2026-05-06 14:16 | 42.39239 | 11.66835 | 13652 ft | 309 kts | 103° |
| 2026-05-06 14:16 | 42.38864 | 11.69694 | 13240 ft | 309 kts | 103° |
| 2026-05-06 14:16 | 42.38489 | 11.72560 | 12855 ft | 308 kts | 103° |
| 2026-05-06 14:16 | 42.38117 | 11.75399 | 12459 ft | 307 kts | 103° |
| 2026-05-06 14:17 | 42.37745 | 11.78223 | 12091 ft | 305 kts | 103° |
| 2026-05-06 14:17 | 42.37374 | 11.81035 | 11725 ft | 304 kts | 103° |
| 2026-05-06 14:17 | 42.37000 | 11.83827 | 11354 ft | 303 kts | 103° |
| 2026-05-06 14:17 | 42.36623 | 11.86634 | 10979 ft | 301 kts | 103° |
| 2026-05-06 14:18 | 42.36251 | 11.89396 | 10627 ft | 299 kts | 103° |
| 2026-05-06 14:18 | 42.35873 | 11.92166 | 10259 ft | 297 kts | 106° |
| 2026-05-06 14:18 | 42.35046 | 11.94642 | 9820 ft | 287 kts | 136° |
| 2026-05-06 14:18 | 42.33487 | 11.96195 | 9488 ft | 274 kts | 158° |
| 2026-05-06 14:19 | 42.31782 | 11.97267 | 9146 ft | 271 kts | 160° |
| 2026-05-06 14:19 | 42.30065 | 11.98330 | 8793 ft | 269 kts | 159° |
| 2026-05-06 14:19 | 42.28380 | 11.99436 | 8436 ft | 268 kts | 157° |
| 2026-05-06 14:19 | 42.26715 | 12.00585 | 8077 ft | 267 kts | 156° |
| 2026-05-06 14:20 | 42.25082 | 12.01746 | 7725 ft | 265 kts | 155° |
| 2026-05-06 14:20 | 42.23456 | 12.02922 | 7365 ft | 264 kts | 155° |
| 2026-05-06 14:20 | 42.21846 | 12.04098 | 7012 ft | 262 kts | 154° |
| 2026-05-06 14:20 | 42.20241 | 12.05280 | 6657 ft | 260 kts | 154° |
| 2026-05-06 14:21 | 42.18664 | 12.06438 | 6310 ft | 258 kts | 154° |
| 2026-05-06 14:21 | 42.17086 | 12.07599 | 5962 ft | 256 kts | 154° |
| 2026-05-06 14:21 | 42.15533 | 12.08745 | 5624 ft | 254 kts | 154° |
| 2026-05-06 14:21 | 42.13981 | 12.09891 | 5282 ft | 252 kts | 154° |
| 2026-05-06 14:22 | 42.12452 | 12.11020 | 4936 ft | 251 kts | 153° |
| 2026-05-06 14:22 | 42.10925 | 12.12147 | 4595 ft | 249 kts | 153° |
| 2026-05-06 14:22 | 42.09404 | 12.13265 | 4249 ft | 247 kts | 153° |
| 2026-05-06 14:22 | 42.07910 | 12.14362 | 3914 ft | 245 kts | 153° |
| 2026-05-06 14:23 | 42.06412 | 12.15462 | 3582 ft | 243 kts | 152° |
| 2026-05-06 14:23 | 42.04912 | 12.16567 | 3244 ft | 242 kts | 152° |
| 2026-05-06 14:23 | 42.03441 | 12.17649 | 2905 ft | 241 kts | 152° |
| 2026-05-06 14:23 | 42.01952 | 12.18706 | 2575 ft | 238 kts | 156° |
| 2026-05-06 14:24 | 42.00454 | 12.19502 | 2483 ft | 226 kts | 161° |
| 2026-05-06 14:24 | 41.98952 | 12.20162 | 2484 ft | 224 kts | 163° |
| 2026-05-06 14:24 | 41.97470 | 12.20774 | 2470 ft | 224 kts | 163° |
| 2026-05-06 14:24 | 41.95964 | 12.21394 | 2286 ft | 224 kts | 163° |
| 2026-05-06 14:25 | 41.94477 | 12.22012 | 1995 ft | 222 kts | 163° |
| 2026-05-06 14:25 | 41.92997 | 12.22629 | 1695 ft | 217 kts | 163° |
| 2026-05-06 14:25 | 41.91596 | 12.23221 | 1450 ft | 201 kts | 163° |
| 2026-05-06 14:25 | 41.90332 | 12.23751 | 1216 ft | 180 kts | 164° |
| 2026-05-06 14:26 | 41.89207 | 12.24218 | 997 ft | 162 kts | 165° |
| 2026-05-06 14:26 | 41.88172 | 12.24653 | 745 ft | 146 kts | 164° |
| 2026-05-06 14:26 | 41.87254 | 12.25038 | 537 ft | 135 kts | 164° |
| 2026-05-06 14:26 | 41.86358 | 12.25400 | 386 ft | 135 kts | 164° |
| 2026-05-06 14:27 | 41.85456 | 12.25794 | 223 ft | 134 kts | 164° |
| 2026-05-06 14:27 | 41.84563 | 12.26170 | 54 ft | 135 kts | 165° |
| 2026-05-06 14:27 | 41.83734 | 12.26505 | 13 ft | 104 kts | 162° |
| 2026-05-06 14:27 | 41.83204 | 12.26731 | 10 ft | 59 kts | 162° |
| 2026-05-06 14:28 | 41.82875 | 12.26857 | 9 ft | 29 kts | 170° |
| 2026-05-06 14:28 | 41.82711 | 12.26868 | 9 ft | 11 kts | 188° |
| 2026-05-06 14:28 | 41.82657 | 12.26858 | 9 ft | 5 kts | 191° |
| 2026-05-06 14:28 | 41.82615 | 12.26843 | 8 ft | 6 kts | 192° |
| 2026-05-06 14:29 | 41.82570 | 12.26833 | 8 ft | 6 kts | 191° |
| 2026-05-06 14:29 | 41.82525 | 12.26818 | 8 ft | 7 kts | 194° |
| 2026-05-06 14:29 | 41.82475 | 12.26802 | 8 ft | 7 kts | 192° |
| 2026-05-06 14:29 | 41.82439 | 12.26792 | 8 ft | 0 kts | 191° |
| 2026-05-06 14:30 | 41.82420 | 12.26787 | 8 ft | 6 kts | 192° |
| 2026-05-06 14:30 | 41.82344 | 12.26787 | 8 ft | 14 kts | 176° |
| 2026-05-06 14:30 | 41.82238 | 12.26815 | 8 ft | 15 kts | 163° |
| 2026-05-06 14:30 | 41.82140 | 12.26858 | 8 ft | 14 kts | 163° |
| 2026-05-06 14:31 | 41.82046 | 12.26893 | 8 ft | 13 kts | 164° |
| 2026-05-06 14:31 | 41.81954 | 12.26932 | 8 ft | 13 kts | 160° |
| 2026-05-06 14:31 | 41.81874 | 12.26965 | 8 ft | 11 kts | 164° |
| 2026-05-06 14:31 | 41.81785 | 12.27003 | 9 ft | 17 kts | 161° |
| 2026-05-06 14:32 | 41.81645 | 12.27066 | 9 ft | 24 kts | 160° |
| 2026-05-06 14:32 | 41.81495 | 12.27125 | 10 ft | 20 kts | 164° |
| 2026-05-06 14:32 | 41.81360 | 12.27181 | 10 ft | 19 kts | 162° |
| 2026-05-06 14:32 | 41.81232 | 12.27236 | 11 ft | 18 kts | 162° |
| 2026-05-06 14:33 | 41.81109 | 12.27288 | 11 ft | 18 kts | 162° |
| 2026-05-06 14:33 | 41.80998 | 12.27337 | 11 ft | 16 kts | 167° |
| 2026-05-06 14:33 | 41.80888 | 12.27346 | 11 ft | 15 kts | 188° |
| 2026-05-06 14:33 | 41.80778 | 12.27324 | 11 ft | 15 kts | 188° |
| 2026-05-06 14:34 | 41.80680 | 12.27277 | 11 ft | 14 kts | 223° |
| 2026-05-06 14:34 | 41.80635 | 12.27157 | 12 ft | 14 kts | 251° |
| 2026-05-06 14:34 | 41.80602 | 12.27040 | 12 ft | 11 kts | 249° |
| 2026-05-06 14:34 | 41.80574 | 12.26935 | 12 ft | 12 kts | 250° |
| 2026-05-06 14:35 | 41.80545 | 12.26829 | 13 ft | 11 kts | 250° |
| 2026-05-06 14:35 | 41.80517 | 12.26726 | 14 ft | 11 kts | 249° |
| 2026-05-06 14:35 | 41.80487 | 12.26622 | 14 ft | 11 kts | 248° |
| 2026-05-06 14:35 | 41.80459 | 12.26521 | 15 ft | 11 kts | 250° |
| 2026-05-06 14:36 | 41.80431 | 12.26419 | 16 ft | 11 kts | 249° |
| 2026-05-06 14:36 | 41.80405 | 12.26325 | 16 ft | 9 kts | 251° |
| 2026-05-06 14:36 | 41.80381 | 12.26239 | 17 ft | 9 kts | 245° |
| 2026-05-06 14:36 | 41.80351 | 12.26156 | 17 ft | 10 kts | 232° |
| 2026-05-06 14:37 | 41.80300 | 12.26090 | 17 ft | 10 kts | 210° |
| 2026-05-06 14:37 | 41.80235 | 12.26049 | 17 ft | 10 kts | 204° |
| 2026-05-06 14:37 | 41.80167 | 12.26009 | 18 ft | 10 kts | 205° |
| 2026-05-06 14:37 | 41.80098 | 12.25966 | 18 ft | 10 kts | 205° |
| 2026-05-06 14:38 | 41.80030 | 12.25923 | 19 ft | 10 kts | 206° |
| 2026-05-06 14:38 | 41.79964 | 12.25879 | 19 ft | 10 kts | 207° |
| 2026-05-06 14:38 | 41.79897 | 12.25839 | 20 ft | 10 kts | 202° |
| 2026-05-06 14:38 | 41.79833 | 12.25790 | 20 ft | 10 kts | 207° |
| 2026-05-06 14:39 | 41.79765 | 12.25746 | 20 ft | 10 kts | 205° |
| 2026-05-06 14:39 | 41.79704 | 12.25730 | 21 ft | 8 kts | 148° |
| 2026-05-06 14:39 | 41.79673 | 12.25793 | 21 ft | 5 kts | 113° |
| 2026-05-06 14:39 | 41.79667 | 12.25811 | 21 ft | 0 kts | 114° |